sensor_id;sensor_type;location;lat;lon;timestamp;P1;durP1;ratioP1;P2;durP2;ratioP2
29236;SDS011;16266;50.866;4.398;2023-12-14T00:02:00;307.67;;;293.48;;
29236;SDS011;16266;50.866;4.398;2023-12-14T00:04:26;277.58;;;264.92;;
29236;SDS011;16266;50.866;4.398;2023-12-14T00:06:51;347.45;;;331.73;;
29236;SDS011;16266;50.866;4.398;2023-12-14T00:09:17;371.50;;;353.55;;
29236;SDS011;16266;50.866;4.398;2023-12-14T00:11:43;375.58;;;357.38;;
29236;SDS011;16266;50.866;4.398;2023-12-14T00:14:08;275.17;;;262.23;;
29236;SDS011;16266;50.866;4.398;2023-12-14T00:16:34;319.10;;;304.23;;
29236;SDS011;16266;50.866;4.398;2023-12-14T00:19:00;308.73;;;294.17;;
29236;SDS011;16266;50.866;4.398;2023-12-14T00:21:25;314.90;;;300.58;;
29236;SDS011;16266;50.866;4.398;2023-12-14T00:23:51;324.88;;;309.98;;
29236;SDS011;16266;50.866;4.398;2023-12-14T00:26:17;304.30;;;290.55;;
29236;SDS011;16266;50.866;4.398;2023-12-14T00:28:43;281.23;;;268.27;;
29236;SDS011;16266;50.866;4.398;2023-12-14T00:31:09;278.10;;;265.90;;
29236;SDS011;16266;50.866;4.398;2023-12-14T00:33:35;270.63;;;258.35;;
29236;SDS011;16266;50.866;4.398;2023-12-14T00:36:00;226.70;;;215.82;;
29236;SDS011;16266;50.866;4.398;2023-12-14T00:38:26;234.88;;;223.98;;
29236;SDS011;16266;50.866;4.398;2023-12-14T00:40:52;252.82;;;240.85;;
29236;SDS011;16266;50.866;4.398;2023-12-14T00:43:17;240.10;;;229.05;;
29236;SDS011;16266;50.866;4.398;2023-12-14T00:45:43;200.52;;;191.15;;
29236;SDS011;16266;50.866;4.398;2023-12-14T00:48:09;215.57;;;205.45;;
29236;SDS011;16266;50.866;4.398;2023-12-14T00:50:34;226.82;;;216.30;;
29236;SDS011;16266;50.866;4.398;2023-12-14T00:53:00;227.68;;;217.23;;
29236;SDS011;16266;50.866;4.398;2023-12-14T00:55:25;205.18;;;195.82;;
29236;SDS011;16266;50.866;4.398;2023-12-14T00:57:51;171.55;;;163.45;;
29236;SDS011;16266;50.866;4.398;2023-12-14T01:00:17;211.00;;;201.00;;
29236;SDS011;16266;50.866;4.398;2023-12-14T01:02:43;184.48;;;175.50;;
29236;SDS011;16266;50.866;4.398;2023-12-14T01:05:09;212.93;;;202.60;;
29236;SDS011;16266;50.866;4.398;2023-12-14T01:07:36;265.00;;;253.20;;
29236;SDS011;16266;50.866;4.398;2023-12-14T01:10:02;195.88;;;186.88;;
29236;SDS011;16266;50.866;4.398;2023-12-14T01:12:28;216.07;;;206.60;;
29236;SDS011;16266;50.866;4.398;2023-12-14T01:14:54;202.73;;;193.27;;
29236;SDS011;16266;50.866;4.398;2023-12-14T01:17:20;183.95;;;175.70;;
29236;SDS011;16266;50.866;4.398;2023-12-14T01:19:45;188.55;;;179.32;;
29236;SDS011;16266;50.866;4.398;2023-12-14T01:22:11;164.48;;;156.45;;
29236;SDS011;16266;50.866;4.398;2023-12-14T01:24:37;226.35;;;215.55;;
29236;SDS011;16266;50.866;4.398;2023-12-14T01:27:03;184.07;;;175.00;;
29236;SDS011;16266;50.866;4.398;2023-12-14T01:29:28;178.00;;;168.45;;
29236;SDS011;16266;50.866;4.398;2023-12-14T01:31:54;188.20;;;178.90;;
29236;SDS011;16266;50.866;4.398;2023-12-14T01:34:19;201.73;;;191.98;;
29236;SDS011;16266;50.866;4.398;2023-12-14T01:36:45;143.27;;;136.05;;
29236;SDS011;16266;50.866;4.398;2023-12-14T01:39:11;161.35;;;153.82;;
29236;SDS011;16266;50.866;4.398;2023-12-14T01:41:37;219.70;;;208.50;;
29236;SDS011;16266;50.866;4.398;2023-12-14T01:44:02;190.48;;;181.57;;
29236;SDS011;16266;50.866;4.398;2023-12-14T01:46:28;158.98;;;151.75;;
29236;SDS011;16266;50.866;4.398;2023-12-14T01:48:54;167.30;;;159.70;;
29236;SDS011;16266;50.866;4.398;2023-12-14T01:51:20;178.35;;;169.65;;
29236;SDS011;16266;50.866;4.398;2023-12-14T01:53:46;144.35;;;137.13;;
29236;SDS011;16266;50.866;4.398;2023-12-14T01:56:12;152.75;;;146.25;;
29236;SDS011;16266;50.866;4.398;2023-12-14T01:58:37;148.13;;;141.57;;
29236;SDS011;16266;50.866;4.398;2023-12-14T02:03:32;162.63;;;155.07;;
29236;SDS011;16266;50.866;4.398;2023-12-14T02:05:57;142.00;;;135.60;;
29236;SDS011;16266;50.866;4.398;2023-12-14T02:08:29;192.77;;;184.48;;
29236;SDS011;16266;50.866;4.398;2023-12-14T02:10:55;172.25;;;164.73;;
29236;SDS011;16266;50.866;4.398;2023-12-14T02:13:20;229.90;;;220.07;;
29236;SDS011;16266;50.866;4.398;2023-12-14T02:15:46;217.25;;;207.90;;
29236;SDS011;16266;50.866;4.398;2023-12-14T02:18:13;208.68;;;199.75;;
29236;SDS011;16266;50.866;4.398;2023-12-14T02:20:38;1560.28;;;807.75;;
29236;SDS011;16266;50.866;4.398;2023-12-14T02:23:04;1999.90;;;999.90;;
29236;SDS011;16266;50.866;4.398;2023-12-14T02:25:29;1999.90;;;999.90;;
29236;SDS011;16266;50.866;4.398;2023-12-14T02:27:56;231.68;;;221.32;;
29236;SDS011;16266;50.866;4.398;2023-12-14T02:30:22;1999.90;;;999.90;;
29236;SDS011;16266;50.866;4.398;2023-12-14T02:32:47;1999.90;;;999.90;;
29236;SDS011;16266;50.866;4.398;2023-12-14T02:35:13;1999.90;;;999.90;;
29236;SDS011;16266;50.866;4.398;2023-12-14T02:37:39;1999.90;;;999.90;;
29236;SDS011;16266;50.866;4.398;2023-12-14T02:40:08;1999.90;;;999.90;;
29236;SDS011;16266;50.866;4.398;2023-12-14T02:42:35;1999.90;;;999.90;;
29236;SDS011;16266;50.866;4.398;2023-12-14T02:45:01;1999.90;;;999.90;;
29236;SDS011;16266;50.866;4.398;2023-12-14T02:47:28;1999.90;;;999.90;;
29236;SDS011;16266;50.866;4.398;2023-12-14T02:49:54;1999.90;;;999.90;;
29236;SDS011;16266;50.866;4.398;2023-12-14T02:52:20;1999.90;;;999.90;;
29236;SDS011;16266;50.866;4.398;2023-12-14T02:54:46;1999.90;;;999.90;;
29236;SDS011;16266;50.866;4.398;2023-12-14T02:57:11;1999.90;;;999.90;;
29236;SDS011;16266;50.866;4.398;2023-12-14T02:59:37;1999.90;;;999.90;;
29236;SDS011;16266;50.866;4.398;2023-12-14T03:02:03;1999.90;;;999.90;;
29236;SDS011;16266;50.866;4.398;2023-12-14T03:04:29;1999.90;;;999.90;;
29236;SDS011;16266;50.866;4.398;2023-12-14T03:06:55;1999.90;;;999.90;;
29236;SDS011;16266;50.866;4.398;2023-12-14T03:09:21;1999.90;;;999.90;;
29236;SDS011;16266;50.866;4.398;2023-12-14T03:11:47;1999.90;;;999.90;;
29236;SDS011;16266;50.866;4.398;2023-12-14T03:14:13;1999.90;;;999.90;;
29236;SDS011;16266;50.866;4.398;2023-12-14T03:16:39;1999.90;;;999.90;;
29236;SDS011;16266;50.866;4.398;2023-12-14T03:19:05;1999.90;;;999.90;;
29236;SDS011;16266;50.866;4.398;2023-12-14T03:21:30;1999.90;;;999.90;;
29236;SDS011;16266;50.866;4.398;2023-12-14T03:23:56;1999.90;;;999.90;;
29236;SDS011;16266;50.866;4.398;2023-12-14T03:26:22;1999.90;;;999.90;;
29236;SDS011;16266;50.866;4.398;2023-12-14T03:28:48;1999.90;;;999.90;;
29236;SDS011;16266;50.866;4.398;2023-12-14T03:31:14;1999.90;;;999.90;;
29236;SDS011;16266;50.866;4.398;2023-12-14T03:33:41;1999.90;;;999.90;;
29236;SDS011;16266;50.866;4.398;2023-12-14T03:36:09;1999.90;;;999.90;;
29236;SDS011;16266;50.866;4.398;2023-12-14T03:38:34;1999.90;;;999.90;;
29236;SDS011;16266;50.866;4.398;2023-12-14T03:41:00;1999.90;;;999.90;;
29236;SDS011;16266;50.866;4.398;2023-12-14T03:43:26;1999.90;;;999.90;;
29236;SDS011;16266;50.866;4.398;2023-12-14T03:45:52;1999.90;;;999.90;;
29236;SDS011;16266;50.866;4.398;2023-12-14T03:48:17;1999.90;;;999.90;;
29236;SDS011;16266;50.866;4.398;2023-12-14T03:50:43;1999.90;;;999.90;;
29236;SDS011;16266;50.866;4.398;2023-12-14T03:53:09;1999.90;;;999.90;;
29236;SDS011;16266;50.866;4.398;2023-12-14T03:55:34;1999.90;;;999.90;;
29236;SDS011;16266;50.866;4.398;2023-12-14T03:58:00;1999.90;;;999.90;;
29236;SDS011;16266;50.866;4.398;2023-12-14T04:00:26;1999.90;;;999.90;;
29236;SDS011;16266;50.866;4.398;2023-12-14T04:02:51;1999.90;;;999.90;;
29236;SDS011;16266;50.866;4.398;2023-12-14T04:05:17;1999.90;;;999.90;;
29236;SDS011;16266;50.866;4.398;2023-12-14T04:07:43;1999.90;;;999.90;;
29236;SDS011;16266;50.866;4.398;2023-12-14T04:10:09;1999.90;;;999.90;;
29236;SDS011;16266;50.866;4.398;2023-12-14T04:12:37;1999.90;;;999.90;;
29236;SDS011;16266;50.866;4.398;2023-12-14T04:15:03;1999.90;;;999.90;;
29236;SDS011;16266;50.866;4.398;2023-12-14T04:17:30;1999.90;;;999.90;;
29236;SDS011;16266;50.866;4.398;2023-12-14T04:19:56;1999.90;;;999.90;;
29236;SDS011;16266;50.866;4.398;2023-12-14T04:22:22;1999.90;;;999.90;;
29236;SDS011;16266;50.866;4.398;2023-12-14T04:24:47;1999.90;;;999.90;;
29236;SDS011;16266;50.866;4.398;2023-12-14T04:27:14;1999.90;;;999.90;;
29236;SDS011;16266;50.866;4.398;2023-12-14T04:29:40;1999.90;;;999.90;;
29236;SDS011;16266;50.866;4.398;2023-12-14T04:32:05;1999.90;;;999.90;;
29236;SDS011;16266;50.866;4.398;2023-12-14T04:34:31;1999.90;;;999.90;;
29236;SDS011;16266;50.866;4.398;2023-12-14T04:36:57;1999.90;;;999.90;;
29236;SDS011;16266;50.866;4.398;2023-12-14T04:39:25;1999.90;;;999.90;;
29236;SDS011;16266;50.866;4.398;2023-12-14T04:41:52;1999.90;;;999.90;;
29236;SDS011;16266;50.866;4.398;2023-12-14T04:44:21;1999.90;;;999.90;;
29236;SDS011;16266;50.866;4.398;2023-12-14T04:46:49;1999.90;;;999.90;;
29236;SDS011;16266;50.866;4.398;2023-12-14T04:49:15;1999.90;;;999.90;;
29236;SDS011;16266;50.866;4.398;2023-12-14T04:51:42;1999.90;;;999.90;;
29236;SDS011;16266;50.866;4.398;2023-12-14T04:54:08;1999.90;;;999.90;;
29236;SDS011;16266;50.866;4.398;2023-12-14T04:56:39;1999.90;;;999.90;;
29236;SDS011;16266;50.866;4.398;2023-12-14T04:59:08;1999.90;;;999.90;;
29236;SDS011;16266;50.866;4.398;2023-12-14T05:01:34;1999.90;;;999.90;;
29236;SDS011;16266;50.866;4.398;2023-12-14T05:04:00;1999.90;;;999.90;;
29236;SDS011;16266;50.866;4.398;2023-12-14T05:06:26;1999.90;;;999.90;;
29236;SDS011;16266;50.866;4.398;2023-12-14T05:08:51;1999.90;;;999.90;;
29236;SDS011;16266;50.866;4.398;2023-12-14T05:11:17;1999.90;;;999.90;;
29236;SDS011;16266;50.866;4.398;2023-12-14T05:13:42;1999.90;;;999.90;;
29236;SDS011;16266;50.866;4.398;2023-12-14T05:16:12;1999.90;;;999.90;;
29236;SDS011;16266;50.866;4.398;2023-12-14T05:18:39;1999.90;;;999.90;;
29236;SDS011;16266;50.866;4.398;2023-12-14T05:21:04;1999.90;;;999.90;;
29236;SDS011;16266;50.866;4.398;2023-12-14T05:23:30;1999.90;;;999.90;;
29236;SDS011;16266;50.866;4.398;2023-12-14T05:25:56;1999.90;;;999.90;;
29236;SDS011;16266;50.866;4.398;2023-12-14T05:28:21;1999.90;;;999.90;;
29236;SDS011;16266;50.866;4.398;2023-12-14T05:30:47;1999.90;;;999.90;;
29236;SDS011;16266;50.866;4.398;2023-12-14T05:33:13;1999.90;;;999.90;;
29236;SDS011;16266;50.866;4.398;2023-12-14T05:35:39;1999.90;;;999.90;;
29236;SDS011;16266;50.866;4.398;2023-12-14T05:38:05;1999.90;;;999.90;;
29236;SDS011;16266;50.866;4.398;2023-12-14T05:40:30;1999.90;;;999.90;;
29236;SDS011;16266;50.866;4.398;2023-12-14T05:42:57;1999.90;;;999.90;;
29236;SDS011;16266;50.866;4.398;2023-12-14T05:45:22;1999.90;;;999.90;;
29236;SDS011;16266;50.866;4.398;2023-12-14T05:47:48;1999.90;;;999.90;;
29236;SDS011;16266;50.866;4.398;2023-12-14T05:50:14;168.00;;;160.60;;
29236;SDS011;16266;50.866;4.398;2023-12-14T05:52:40;130.15;;;124.68;;
29236;SDS011;16266;50.866;4.398;2023-12-14T05:55:10;135.23;;;129.25;;
29236;SDS011;16266;50.866;4.398;2023-12-14T05:57:36;126.50;;;121.10;;
29236;SDS011;16266;50.866;4.398;2023-12-14T06:00:03;145.75;;;139.18;;
29236;SDS011;16266;50.866;4.398;2023-12-14T06:02:30;139.60;;;133.15;;
29236;SDS011;16266;50.866;4.398;2023-12-14T06:04:57;131.13;;;125.15;;
29236;SDS011;16266;50.866;4.398;2023-12-14T06:07:23;128.43;;;122.78;;
29236;SDS011;16266;50.866;4.398;2023-12-14T06:09:49;116.13;;;110.90;;
29236;SDS011;16266;50.866;4.398;2023-12-14T06:12:14;124.50;;;118.78;;
29236;SDS011;16266;50.866;4.398;2023-12-14T06:14:40;118.70;;;113.72;;
29236;SDS011;16266;50.866;4.398;2023-12-14T06:17:06;105.82;;;101.57;;
29236;SDS011;16266;50.866;4.398;2023-12-14T06:19:31;107.97;;;103.28;;
29236;SDS011;16266;50.866;4.398;2023-12-14T06:21:57;105.65;;;101.30;;
29236;SDS011;16266;50.866;4.398;2023-12-14T06:24:23;107.50;;;102.80;;
29236;SDS011;16266;50.866;4.398;2023-12-14T06:26:49;98.38;;;93.88;;
29236;SDS011;16266;50.866;4.398;2023-12-14T06:29:14;1999.90;;;999.90;;
29236;SDS011;16266;50.866;4.398;2023-12-14T06:31:40;90.22;;;86.47;;
29236;SDS011;16266;50.866;4.398;2023-12-14T06:34:06;1999.90;;;999.90;;
29236;SDS011;16266;50.866;4.398;2023-12-14T06:36:33;85.38;;;81.55;;
29236;SDS011;16266;50.866;4.398;2023-12-14T06:39:00;1523.57;;;772.50;;
29236;SDS011;16266;50.866;4.398;2023-12-14T06:41:27;1523.53;;;772.38;;
29236;SDS011;16266;50.866;4.398;2023-12-14T06:43:53;1999.90;;;999.90;;
29236;SDS011;16266;50.866;4.398;2023-12-14T06:46:20;89.13;;;84.88;;
29236;SDS011;16266;50.866;4.398;2023-12-14T06:48:46;89.00;;;84.68;;
29236;SDS011;16266;50.866;4.398;2023-12-14T06:51:12;79.68;;;76.15;;
29236;SDS011;16266;50.866;4.398;2023-12-14T06:53:41;90.22;;;86.53;;
29236;SDS011;16266;50.866;4.398;2023-12-14T06:56:08;84.90;;;80.40;;
29236;SDS011;16266;50.866;4.398;2023-12-14T06:58:36;72.13;;;68.85;;
29236;SDS011;16266;50.866;4.398;2023-12-14T07:01:05;74.03;;;70.93;;
29236;SDS011;16266;50.866;4.398;2023-12-14T07:03:31;71.43;;;68.03;;
29236;SDS011;16266;50.866;4.398;2023-12-14T07:05:57;74.80;;;71.25;;
29236;SDS011;16266;50.866;4.398;2023-12-14T07:08:23;67.18;;;64.10;;
29236;SDS011;16266;50.866;4.398;2023-12-14T07:10:49;69.40;;;66.07;;
29236;SDS011;16266;50.866;4.398;2023-12-14T07:13:15;59.03;;;56.60;;
29236;SDS011;16266;50.866;4.398;2023-12-14T07:15:41;61.78;;;59.13;;
29236;SDS011;16266;50.866;4.398;2023-12-14T07:18:06;59.55;;;56.97;;
29236;SDS011;16266;50.866;4.398;2023-12-14T07:20:32;56.42;;;53.85;;
29236;SDS011;16266;50.866;4.398;2023-12-14T07:22:58;54.42;;;52.13;;
29236;SDS011;16266;50.866;4.398;2023-12-14T07:25:24;51.25;;;48.95;;
29236;SDS011;16266;50.866;4.398;2023-12-14T07:27:49;51.70;;;49.53;;
29236;SDS011;16266;50.866;4.398;2023-12-14T07:30:16;58.40;;;55.35;;
29236;SDS011;16266;50.866;4.398;2023-12-14T07:32:41;46.85;;;44.90;;
29236;SDS011;16266;50.866;4.398;2023-12-14T07:35:07;51.28;;;48.88;;
29236;SDS011;16266;50.866;4.398;2023-12-14T07:37:34;42.58;;;40.47;;
29236;SDS011;16266;50.866;4.398;2023-12-14T07:40:00;50.97;;;48.72;;
29236;SDS011;16266;50.866;4.398;2023-12-14T07:42:26;49.00;;;46.80;;
29236;SDS011;16266;50.866;4.398;2023-12-14T07:44:51;51.08;;;48.70;;
29236;SDS011;16266;50.866;4.398;2023-12-14T07:47:17;56.58;;;53.95;;
29236;SDS011;16266;50.866;4.398;2023-12-14T07:49:43;55.97;;;53.55;;
29236;SDS011;16266;50.866;4.398;2023-12-14T07:52:09;61.17;;;58.58;;
29236;SDS011;16266;50.866;4.398;2023-12-14T07:54:35;59.60;;;56.85;;
29236;SDS011;16266;50.866;4.398;2023-12-14T07:57:01;57.80;;;55.30;;
29236;SDS011;16266;50.866;4.398;2023-12-14T07:59:27;56.22;;;53.53;;
29236;SDS011;16266;50.866;4.398;2023-12-14T08:01:54;50.10;;;47.85;;
29236;SDS011;16266;50.866;4.398;2023-12-14T08:04:20;56.38;;;53.70;;
29236;SDS011;16266;50.866;4.398;2023-12-14T08:06:46;56.53;;;53.95;;
29236;SDS011;16266;50.866;4.398;2023-12-14T08:09:12;57.95;;;55.28;;
29236;SDS011;16266;50.866;4.398;2023-12-14T08:11:39;61.60;;;58.95;;
29236;SDS011;16266;50.866;4.398;2023-12-14T08:14:05;67.32;;;64.47;;
29236;SDS011;16266;50.866;4.398;2023-12-14T08:16:37;69.75;;;66.70;;
29236;SDS011;16266;50.866;4.398;2023-12-14T08:19:03;57.95;;;55.33;;
29236;SDS011;16266;50.866;4.398;2023-12-14T08:21:28;59.42;;;56.40;;
29236;SDS011;16266;50.866;4.398;2023-12-14T08:23:54;66.20;;;63.38;;
29236;SDS011;16266;50.866;4.398;2023-12-14T08:26:20;62.63;;;60.03;;
29236;SDS011;16266;50.866;4.398;2023-12-14T08:28:45;70.45;;;67.40;;
29236;SDS011;16266;50.866;4.398;2023-12-14T08:31:11;62.08;;;59.45;;
29236;SDS011;16266;50.866;4.398;2023-12-14T08:33:37;55.55;;;53.03;;
29236;SDS011;16266;50.866;4.398;2023-12-14T08:36:03;61.30;;;58.63;;
29236;SDS011;16266;50.866;4.398;2023-12-14T08:38:30;60.50;;;58.00;;
29236;SDS011;16266;50.866;4.398;2023-12-14T08:40:56;52.80;;;50.45;;
29236;SDS011;16266;50.866;4.398;2023-12-14T08:43:22;43.92;;;41.60;;
29236;SDS011;16266;50.866;4.398;2023-12-14T08:45:47;49.85;;;47.85;;
29236;SDS011;16266;50.866;4.398;2023-12-14T08:48:13;73.75;;;70.10;;
29236;SDS011;16266;50.866;4.398;2023-12-14T08:50:39;42.70;;;40.80;;
29236;SDS011;16266;50.866;4.398;2023-12-14T08:53:05;63.72;;;60.05;;
29236;SDS011;16266;50.866;4.398;2023-12-14T08:55:30;61.22;;;58.72;;
29236;SDS011;16266;50.866;4.398;2023-12-14T08:57:56;96.57;;;92.03;;
29236;SDS011;16266;50.866;4.398;2023-12-14T09:00:22;65.43;;;62.63;;
29236;SDS011;16266;50.866;4.398;2023-12-14T09:02:48;69.03;;;65.90;;
29236;SDS011;16266;50.866;4.398;2023-12-14T09:05:14;54.53;;;52.20;;
29236;SDS011;16266;50.866;4.398;2023-12-14T09:07:41;37.60;;;36.20;;
29236;SDS011;16266;50.866;4.398;2023-12-14T09:10:08;37.50;;;35.92;;
29236;SDS011;16266;50.866;4.398;2023-12-14T09:12:34;50.35;;;47.97;;
29236;SDS011;16266;50.866;4.398;2023-12-14T09:15:00;68.38;;;65.72;;
29236;SDS011;16266;50.866;4.398;2023-12-14T09:17:26;77.68;;;74.65;;
29236;SDS011;16266;50.866;4.398;2023-12-14T09:19:57;77.40;;;73.63;;
29236;SDS011;16266;50.866;4.398;2023-12-14T09:22:26;67.32;;;64.45;;
29236;SDS011;16266;50.866;4.398;2023-12-14T09:24:52;52.75;;;50.63;;
29236;SDS011;16266;50.866;4.398;2023-12-14T09:27:17;56.20;;;53.90;;
29236;SDS011;16266;50.866;4.398;2023-12-14T09:29:43;86.35;;;82.35;;
29236;SDS011;16266;50.866;4.398;2023-12-14T09:32:09;77.50;;;74.40;;
29236;SDS011;16266;50.866;4.398;2023-12-14T09:34:35;76.55;;;73.45;;
29236;SDS011;16266;50.866;4.398;2023-12-14T09:37:01;81.13;;;77.22;;
29236;SDS011;16266;50.866;4.398;2023-12-14T09:39:26;81.15;;;78.00;;
29236;SDS011;16266;50.866;4.398;2023-12-14T09:42:04;83.78;;;79.20;;
29236;SDS011;16266;50.866;4.398;2023-12-14T09:44:31;76.45;;;73.57;;
29236;SDS011;16266;50.866;4.398;2023-12-14T09:47:01;81.10;;;77.90;;
29236;SDS011;16266;50.866;4.398;2023-12-14T09:49:30;75.97;;;72.80;;
29236;SDS011;16266;50.866;4.398;2023-12-14T09:51:56;76.07;;;72.32;;
29236;SDS011;16266;50.866;4.398;2023-12-14T09:54:22;77.13;;;73.93;;
29236;SDS011;16266;50.866;4.398;2023-12-14T09:56:48;81.63;;;78.32;;
29236;SDS011;16266;50.866;4.398;2023-12-14T09:59:15;79.15;;;75.68;;
29236;SDS011;16266;50.866;4.398;2023-12-14T10:01:41;80.88;;;77.15;;
29236;SDS011;16266;50.866;4.398;2023-12-14T10:04:08;86.40;;;83.05;;
29236;SDS011;16266;50.866;4.398;2023-12-14T10:06:35;83.88;;;79.88;;
29236;SDS011;16266;50.866;4.398;2023-12-14T10:09:02;80.15;;;76.85;;
29236;SDS011;16266;50.866;4.398;2023-12-14T10:11:29;72.05;;;68.95;;
29236;SDS011;16266;50.866;4.398;2023-12-14T10:13:55;82.30;;;79.20;;
29236;SDS011;16266;50.866;4.398;2023-12-14T10:16:27;81.20;;;77.85;;
29236;SDS011;16266;50.866;4.398;2023-12-14T10:18:55;76.55;;;73.35;;
29236;SDS011;16266;50.866;4.398;2023-12-14T10:21:22;84.78;;;81.22;;
29236;SDS011;16266;50.866;4.398;2023-12-14T10:23:49;85.43;;;81.93;;
29236;SDS011;16266;50.866;4.398;2023-12-14T10:26:14;89.28;;;85.63;;
29236;SDS011;16266;50.866;4.398;2023-12-14T10:28:40;84.38;;;80.93;;
29236;SDS011;16266;50.866;4.398;2023-12-14T10:31:06;89.45;;;85.57;;
29236;SDS011;16266;50.866;4.398;2023-12-14T10:33:34;84.45;;;80.93;;
29236;SDS011;16266;50.866;4.398;2023-12-14T10:35:59;97.20;;;93.18;;
29236;SDS011;16266;50.866;4.398;2023-12-14T10:38:27;89.05;;;85.47;;
29236;SDS011;16266;50.866;4.398;2023-12-14T10:40:54;79.10;;;75.85;;
29236;SDS011;16266;50.866;4.398;2023-12-14T10:43:22;87.07;;;83.50;;
29236;SDS011;16266;50.866;4.398;2023-12-14T10:45:48;86.43;;;82.75;;
29236;SDS011;16266;50.866;4.398;2023-12-14T10:48:14;85.25;;;81.95;;
29236;SDS011;16266;50.866;4.398;2023-12-14T10:50:45;76.50;;;73.60;;
29236;SDS011;16266;50.866;4.398;2023-12-14T10:53:13;73.88;;;70.65;;
29236;SDS011;16266;50.866;4.398;2023-12-14T10:55:43;75.60;;;72.45;;
29236;SDS011;16266;50.866;4.398;2023-12-14T11:00:36;77.03;;;74.05;;
29236;SDS011;16266;50.866;4.398;2023-12-14T11:03:03;68.88;;;66.05;;
29236;SDS011;16266;50.866;4.398;2023-12-14T11:05:34;51.30;;;49.08;;
29236;SDS011;16266;50.866;4.398;2023-12-14T11:08:02;48.95;;;47.13;;
29236;SDS011;16266;50.866;4.398;2023-12-14T11:10:38;48.20;;;46.15;;
29236;SDS011;16266;50.866;4.398;2023-12-14T11:13:06;47.40;;;45.50;;
29236;SDS011;16266;50.866;4.398;2023-12-14T11:15:36;44.33;;;42.03;;
29236;SDS011;16266;50.866;4.398;2023-12-14T11:21:20;50.15;;;48.20;;
29236;SDS011;16266;50.866;4.398;2023-12-14T11:23:27;49.20;;;47.20;;
29236;SDS011;16266;50.866;4.398;2023-12-14T11:26:10;48.72;;;46.83;;
29236;SDS011;16266;50.866;4.398;2023-12-14T11:28:37;49.78;;;47.70;;
29236;SDS011;16266;50.866;4.398;2023-12-14T11:31:04;49.03;;;46.65;;
29236;SDS011;16266;50.866;4.398;2023-12-14T11:33:34;42.17;;;40.47;;
29236;SDS011;16266;50.866;4.398;2023-12-14T11:36:01;41.30;;;39.70;;
29236;SDS011;16266;50.866;4.398;2023-12-14T11:38:31;38.42;;;36.92;;
29236;SDS011;16266;50.866;4.398;2023-12-14T11:40:57;41.80;;;40.15;;
29236;SDS011;16266;50.866;4.398;2023-12-14T11:43:24;37.17;;;35.58;;
29236;SDS011;16266;50.866;4.398;2023-12-14T11:45:51;37.60;;;35.97;;
29236;SDS011;16266;50.866;4.398;2023-12-14T11:48:18;35.42;;;34.08;;
29236;SDS011;16266;50.866;4.398;2023-12-14T11:50:45;38.97;;;37.45;;
29236;SDS011;16266;50.866;4.398;2023-12-14T11:53:12;47.65;;;45.78;;
29236;SDS011;16266;50.866;4.398;2023-12-14T11:55:42;57.40;;;54.53;;
29236;SDS011;16266;50.866;4.398;2023-12-14T11:58:08;70.53;;;67.72;;
29236;SDS011;16266;50.866;4.398;2023-12-14T12:00:39;57.47;;;54.45;;
29236;SDS011;16266;50.866;4.398;2023-12-14T12:03:11;69.22;;;66.05;;
29236;SDS011;16266;50.866;4.398;2023-12-14T12:05:40;85.18;;;81.38;;
29236;SDS011;16266;50.866;4.398;2023-12-14T12:08:07;81.57;;;78.05;;
29236;SDS011;16266;50.866;4.398;2023-12-14T12:10:34;49.50;;;47.33;;
29236;SDS011;16266;50.866;4.398;2023-12-14T12:13:04;45.22;;;43.15;;
29236;SDS011;16266;50.866;4.398;2023-12-14T12:15:31;63.03;;;60.20;;
29236;SDS011;16266;50.866;4.398;2023-12-14T12:17:58;99.63;;;95.18;;
29236;SDS011;16266;50.866;4.398;2023-12-14T12:20:24;109.00;;;104.55;;
29236;SDS011;16266;50.866;4.398;2023-12-14T12:22:50;101.15;;;97.25;;
29236;SDS011;16266;50.866;4.398;2023-12-14T12:25:16;93.30;;;89.38;;
29236;SDS011;16266;50.866;4.398;2023-12-14T12:27:42;85.20;;;81.00;;
29236;SDS011;16266;50.866;4.398;2023-12-14T12:30:09;72.20;;;69.28;;
29236;SDS011;16266;50.866;4.398;2023-12-14T12:32:35;87.75;;;83.75;;
29236;SDS011;16266;50.866;4.398;2023-12-14T12:35:00;89.82;;;86.32;;
29236;SDS011;16266;50.866;4.398;2023-12-14T12:37:26;80.57;;;76.63;;
29236;SDS011;16266;50.866;4.398;2023-12-14T12:39:52;66.90;;;63.47;;
29236;SDS011;16266;50.866;4.398;2023-12-14T12:42:17;34.30;;;32.80;;
29236;SDS011;16266;50.866;4.398;2023-12-14T12:44:43;38.20;;;35.97;;
29236;SDS011;16266;50.866;4.398;2023-12-14T12:47:09;48.53;;;46.70;;
29236;SDS011;16266;50.866;4.398;2023-12-14T12:49:35;53.90;;;51.28;;
29236;SDS011;16266;50.866;4.398;2023-12-14T12:52:00;46.60;;;44.67;;
29236;SDS011;16266;50.866;4.398;2023-12-14T12:54:26;58.83;;;56.53;;
29236;SDS011;16266;50.866;4.398;2023-12-14T12:56:52;60.90;;;58.42;;
29236;SDS011;16266;50.866;4.398;2023-12-14T12:59:17;55.00;;;52.75;;
29236;SDS011;16266;50.866;4.398;2023-12-14T13:01:43;54.20;;;51.80;;
29236;SDS011;16266;50.866;4.398;2023-12-14T13:04:19;51.35;;;48.65;;
29236;SDS011;16266;50.866;4.398;2023-12-14T13:06:49;47.75;;;45.90;;
29236;SDS011;16266;50.866;4.398;2023-12-14T13:09:16;48.65;;;46.65;;
29236;SDS011;16266;50.866;4.398;2023-12-14T13:11:42;43.35;;;41.40;;
29236;SDS011;16266;50.866;4.398;2023-12-14T13:14:08;52.20;;;50.05;;
29236;SDS011;16266;50.866;4.398;2023-12-14T13:16:35;52.22;;;49.80;;
29236;SDS011;16266;50.866;4.398;2023-12-14T13:19:01;54.42;;;52.20;;
29236;SDS011;16266;50.866;4.398;2023-12-14T13:21:28;51.15;;;49.25;;
29236;SDS011;16266;50.866;4.398;2023-12-14T13:23:54;52.38;;;49.97;;
29236;SDS011;16266;50.866;4.398;2023-12-14T13:26:22;55.83;;;53.70;;
29236;SDS011;16266;50.866;4.398;2023-12-14T13:28:49;58.28;;;56.08;;
29236;SDS011;16266;50.866;4.398;2023-12-14T13:31:19;64.55;;;62.10;;
29236;SDS011;16266;50.866;4.398;2023-12-14T13:33:45;74.25;;;71.25;;
29236;SDS011;16266;50.866;4.398;2023-12-14T13:36:11;94.80;;;90.57;;
29236;SDS011;16266;50.866;4.398;2023-12-14T13:38:37;87.65;;;84.07;;
29236;SDS011;16266;50.866;4.398;2023-12-14T13:41:03;79.47;;;76.45;;
29236;SDS011;16266;50.866;4.398;2023-12-14T13:43:29;56.45;;;54.28;;
29236;SDS011;16266;50.866;4.398;2023-12-14T13:45:55;53.22;;;50.92;;
29236;SDS011;16266;50.866;4.398;2023-12-14T13:48:24;48.15;;;46.33;;
29236;SDS011;16266;50.866;4.398;2023-12-14T13:50:51;45.80;;;44.00;;
29236;SDS011;16266;50.866;4.398;2023-12-14T13:53:16;46.67;;;44.58;;
29236;SDS011;16266;50.866;4.398;2023-12-14T13:55:42;45.28;;;43.38;;
29236;SDS011;16266;50.866;4.398;2023-12-14T13:58:08;40.33;;;38.75;;
29236;SDS011;16266;50.866;4.398;2023-12-14T14:00:34;42.33;;;40.63;;
29236;SDS011;16266;50.866;4.398;2023-12-14T14:03:02;41.50;;;39.67;;
29236;SDS011;16266;50.866;4.398;2023-12-14T14:05:31;41.97;;;40.08;;
29236;SDS011;16266;50.866;4.398;2023-12-14T14:07:57;49.10;;;47.05;;
29236;SDS011;16266;50.866;4.398;2023-12-14T14:10:23;38.85;;;36.95;;